createdAt,value
2017-11-19T00:00:39.583Z,41.15
2017-11-19T00:03:11.744Z,41.19
2017-11-19T00:05:43.715Z,41.22
2017-11-19T00:08:15.273Z,41.24
2017-11-19T00:10:46.829Z,41.19
2017-11-19T00:13:18.569Z,41.07
2017-11-19T00:15:49.533Z,41.08
2017-11-19T00:18:21.669Z,40.98
2017-11-19T00:20:53.230Z,40.85
2017-11-19T00:23:26.099Z,40.78
2017-11-19T00:25:58.183Z,40.69
2017-11-19T00:28:30.099Z,40.60
2017-11-19T00:31:02.146Z,40.47
2017-11-19T00:33:35.665Z,40.39
2017-11-19T00:36:07.353Z,40.30
2017-11-19T00:38:40.657Z,40.24
2017-11-19T00:41:12.232Z,40.28
2017-11-19T00:43:44.083Z,40.26
2017-11-19T00:46:16.645Z,40.27
2017-11-19T00:48:48.586Z,40.33
2017-11-19T00:51:20.354Z,40.46
2017-11-19T00:53:53.620Z,40.46
2017-11-19T00:56:25.409Z,40.46
2017-11-19T00:58:57.059Z,40.54
2017-11-19T01:01:28.899Z,40.52
2017-11-19T01:04:00.480Z,40.48
2017-11-19T01:06:32.651Z,40.52
2017-11-19T01:09:04.584Z,40.58
2017-11-19T01:11:36.596Z,40.57
2017-11-19T01:14:09.523Z,40.71
2017-11-19T01:16:43.306Z,40.68
2017-11-19T01:19:14.388Z,40.69
2017-11-19T01:21:47.854Z,40.70
2017-11-19T01:24:19.824Z,40.80
2017-11-19T01:26:51.552Z,40.78
2017-11-19T01:29:23.023Z,40.87
2017-11-19T01:31:56.462Z,40.96
2017-11-19T01:34:30.612Z,40.97
2017-11-19T01:37:03.082Z,40.96
2017-11-19T01:39:34.474Z,40.99
2017-11-19T01:42:10.411Z,40.98
2017-11-19T01:44:42.879Z,40.99
2017-11-19T01:47:16.001Z,41.00
2017-11-19T01:49:48.492Z,41.04
2017-11-19T01:52:20.339Z,41.07
2017-11-19T01:54:52.509Z,41.05
2017-11-19T01:57:24.528Z,41.00
2017-11-19T01:59:56.983Z,40.96
2017-11-19T02:02:34.912Z,40.91
2017-11-19T02:05:06.923Z,40.78
2017-11-19T02:07:38.714Z,40.73
2017-11-19T02:10:13.729Z,40.76
2017-11-19T02:12:50.241Z,40.73
2017-11-19T02:15:27.897Z,40.61
2017-11-19T02:17:59.948Z,40.55
2017-11-19T02:20:34.159Z,40.53
2017-11-19T02:23:10.165Z,40.52
2017-11-19T02:25:42.340Z,40.49
2017-11-19T02:28:13.966Z,40.45
2017-11-19T02:30:46.160Z,40.38
2017-11-19T02:33:18.630Z,40.43
2017-11-19T02:35:50.337Z,40.43
2017-11-19T02:38:22.887Z,40.43
2017-11-19T02:40:54.432Z,40.49
2017-11-19T02:43:28.222Z,40.39
2017-11-19T02:46:00.091Z,40.36
2017-11-19T02:48:32.784Z,40.49
2017-11-19T02:51:06.395Z,40.49
2017-11-19T02:53:38.764Z,40.55
2017-11-19T02:56:12.220Z,40.57
2017-11-19T02:58:45.338Z,40.71
2017-11-19T03:01:17.494Z,40.64
2017-11-19T03:03:49.429Z,40.66
2017-11-19T03:06:21.203Z,40.82
2017-11-19T03:08:52.998Z,40.82
2017-11-19T03:11:25.420Z,40.93
2017-11-19T03:13:57.172Z,40.89
2017-11-19T03:16:29.325Z,40.96
2017-11-19T03:19:00.755Z,40.95
2017-11-19T03:21:33.436Z,40.92
2017-11-19T03:24:05.558Z,40.99
2017-11-19T03:26:38.250Z,40.97
2017-11-19T03:29:10.373Z,41.02
2017-11-19T03:31:41.873Z,41.07
2017-11-19T03:34:13.419Z,41.11
2017-11-19T03:36:46.924Z,41.17
2017-11-19T03:39:18.803Z,41.16
2017-11-19T03:41:50.826Z,41.17
2017-11-19T03:44:22.549Z,41.15
2017-11-19T03:46:54.920Z,41.11
2017-11-19T03:49:27.051Z,41.05
2017-11-19T03:51:59.376Z,40.97
2017-11-19T03:54:31.756Z,40.89
2017-11-19T03:57:03.494Z,40.82
2017-11-19T03:59:35.234Z,40.61
2017-11-19T04:02:07.500Z,40.49
2017-11-19T04:04:39.380Z,40.48
2017-11-19T04:07:12.227Z,40.54
2017-11-19T04:09:44.522Z,40.54
2017-11-19T04:12:16.012Z,40.51
2017-11-19T04:14:48.576Z,40.49
2017-11-19T04:17:21.438Z,40.44
2017-11-19T04:19:53.484Z,40.47
2017-11-19T04:22:26.319Z,40.58
2017-11-19T04:24:58.861Z,40.59
2017-11-19T04:27:30.322Z,40.55
2017-11-19T04:30:02.609Z,40.69
2017-11-19T04:32:35.470Z,40.75
2017-11-19T04:35:07.218Z,40.78
2017-11-19T04:37:40.319Z,40.76
2017-11-19T04:40:12.889Z,40.82
2017-11-19T04:42:44.805Z,40.77
2017-11-19T04:45:16.183Z,40.82
2017-11-19T04:47:48.149Z,40.84
2017-11-19T04:50:20.181Z,40.92
2017-11-19T04:52:52.330Z,40.90
2017-11-19T04:55:24.993Z,40.89
2017-11-19T04:57:56.327Z,40.89
2017-11-19T05:00:27.767Z,40.95
2017-11-19T05:02:59.452Z,41.01
2017-11-19T05:05:31.838Z,40.98
2017-11-19T05:08:03.688Z,40.99
2017-11-19T05:10:35.111Z,41.00
2017-11-19T05:13:06.458Z,41.03
2017-11-19T05:15:39.067Z,40.98
2017-11-19T05:18:11.078Z,40.89
2017-11-19T05:20:43.155Z,40.85
2017-11-19T05:23:16.262Z,40.88
2017-11-19T05:25:48.035Z,40.86
2017-11-19T05:28:20.408Z,40.91
2017-11-19T05:30:52.576Z,40.88
2017-11-19T05:33:24.106Z,40.84
2017-11-19T05:35:56.101Z,40.84
2017-11-19T05:38:28.076Z,40.71
2017-11-19T05:40:59.937Z,40.77
2017-11-19T05:43:32.800Z,40.57
2017-11-19T05:46:04.126Z,40.58
2017-11-19T05:48:37.423Z,40.58
2017-11-19T05:51:09.141Z,40.50
2017-11-19T05:53:42.141Z,40.50
2017-11-19T05:56:15.140Z,40.49
2017-11-19T05:58:50.101Z,40.53
2017-11-19T06:01:22.182Z,40.45
2017-11-19T06:03:53.855Z,40.50
2017-11-19T06:06:25.636Z,40.48
2017-11-19T06:08:58.467Z,40.58
2017-11-19T06:11:32.085Z,40.64
2017-11-19T06:14:04.941Z,40.77
2017-11-19T06:16:36.688Z,40.77
2017-11-19T06:19:08.908Z,40.76
2017-11-19T06:21:40.445Z,40.71
2017-11-19T06:24:13.119Z,40.63
2017-11-19T06:26:45.955Z,40.65
2017-11-19T06:29:17.356Z,40.54
2017-11-19T06:31:50.050Z,40.69
2017-11-19T06:34:21.803Z,40.67
2017-11-19T06:36:53.774Z,40.71
2017-11-19T06:39:26.999Z,40.66
2017-11-19T06:42:00.013Z,40.75
2017-11-19T06:44:32.658Z,40.83
2017-11-19T06:47:06.217Z,40.79
2017-11-19T06:49:37.808Z,40.71
2017-11-19T06:52:10.120Z,40.72
2017-11-19T06:54:42.568Z,40.82
2017-11-19T06:57:14.018Z,40.71
2017-11-19T06:59:47.838Z,40.62
2017-11-19T07:02:20.780Z,40.77
2017-11-19T07:04:55.868Z,40.87
2017-11-19T07:07:28.666Z,40.92
2017-11-19T07:10:00.573Z,40.98
2017-11-19T07:12:33.501Z,40.98
2017-11-19T07:15:06.795Z,40.88
2017-11-19T07:17:38.135Z,40.98
2017-11-19T07:20:13.321Z,40.99
2017-11-19T07:22:46.978Z,40.93
2017-11-19T07:25:18.856Z,40.94
2017-11-19T07:27:51.111Z,40.73
2017-11-19T07:30:24.702Z,40.68
2017-11-19T07:32:57.326Z,40.45
2017-11-19T07:35:29.458Z,40.46
2017-11-19T07:38:01.205Z,40.36
2017-11-19T07:40:34.911Z,40.26
2017-11-19T07:43:07.856Z,40.09
2017-11-19T07:45:39.904Z,40.09
2017-11-19T07:48:11.776Z,40.06
2017-11-19T07:50:43.025Z,39.98
2017-11-19T07:53:15.782Z,39.96
2017-11-19T07:55:48.022Z,39.90
2017-11-19T07:58:19.555Z,39.80
2017-11-19T08:00:51.625Z,39.79
2017-11-19T08:03:23.966Z,39.60
2017-11-19T08:05:55.959Z,39.53
2017-11-19T08:08:29.329Z,39.59
2017-11-19T08:11:16.947Z,39.65
2017-11-19T08:13:48.654Z,39.63
2017-11-19T08:16:20.094Z,39.62
2017-11-19T08:18:53.003Z,39.73
2017-11-19T08:21:26.412Z,39.66
2017-11-19T08:24:00.162Z,39.57
2017-11-19T08:26:35.184Z,39.58
2017-11-19T08:29:08.495Z,39.76
2017-11-19T08:31:40.554Z,39.79
2017-11-19T08:34:16.541Z,39.69
2017-11-19T08:36:47.642Z,39.63
2017-11-19T08:39:18.810Z,39.73
2017-11-19T08:41:52.414Z,39.82
2017-11-19T08:44:26.958Z,39.75
2017-11-19T08:47:01.125Z,39.73
2017-11-19T08:49:34.695Z,39.74
2017-11-19T08:52:08.334Z,39.73
2017-11-19T08:54:39.628Z,39.76
2017-11-19T08:57:11.253Z,39.71
2017-11-19T08:59:42.252Z,39.70
2017-11-19T09:02:15.033Z,39.88
2017-11-19T09:04:47.989Z,39.85
2017-11-19T09:07:20.198Z,39.79
2017-11-19T09:09:54.335Z,39.81
2017-11-19T09:12:27.543Z,39.85
2017-11-19T09:14:59.194Z,39.69
2017-11-19T09:17:32.329Z,39.55
2017-11-19T09:20:06.607Z,39.54
2017-11-19T09:22:38.234Z,39.38
2017-11-19T09:25:18.177Z,39.33
2017-11-19T09:27:51.167Z,39.13
2017-11-19T09:30:22.271Z,38.89
2017-11-19T09:32:57.681Z,38.83
2017-11-19T09:35:29.355Z,38.69
2017-11-19T09:38:04.470Z,38.68
2017-11-19T09:40:39.555Z,38.54
2017-11-19T09:43:12.116Z,38.56
2017-11-19T09:45:48.668Z,38.52
2017-11-19T09:48:21.793Z,38.46
2017-11-19T09:50:55.071Z,38.44
2017-11-19T09:53:29.754Z,38.41
2017-11-19T09:56:01.085Z,38.37
2017-11-19T09:58:37.299Z,38.42
2017-11-19T10:01:09.322Z,38.41
2017-11-19T10:03:43.047Z,38.41
2017-11-19T10:06:15.723Z,38.44
2017-11-19T10:08:47.208Z,38.40
2017-11-19T10:11:18.688Z,38.41
2017-11-19T10:13:52.046Z,38.45
2017-11-19T10:16:23.526Z,38.55
2017-11-19T10:18:55.295Z,38.67
2017-11-19T10:21:28.783Z,38.79
2017-11-19T10:24:01.816Z,38.90
2017-11-19T10:26:37.575Z,38.98
2017-11-19T10:29:11.399Z,39.08
2017-11-19T10:31:44.418Z,39.15
2017-11-19T10:34:16.403Z,39.22
2017-11-19T10:36:47.774Z,39.28
2017-11-19T10:39:19.842Z,39.30
2017-11-19T10:41:50.934Z,39.34
2017-11-19T10:44:27.159Z,39.33
2017-11-19T10:46:58.185Z,39.28
2017-11-19T10:49:29.566Z,39.21
2017-11-19T10:52:01.509Z,39.12
2017-11-19T10:54:34.324Z,39.12
2017-11-19T10:57:06.743Z,39.13
2017-11-19T10:59:38.194Z,39.14
2017-11-19T11:02:09.750Z,39.18
2017-11-19T11:04:45.988Z,39.20
2017-11-19T11:07:18.744Z,39.23
2017-11-19T11:09:51.184Z,39.29
2017-11-19T11:12:25.219Z,39.28
2017-11-19T11:14:56.518Z,39.31
2017-11-19T11:17:31.552Z,39.28
2017-11-19T11:20:08.113Z,39.19
2017-11-19T11:22:53.597Z,39.17
2017-11-19T11:25:25.521Z,39.09
2017-11-19T11:27:57.140Z,39.05
2017-11-19T11:30:28.650Z,39.00
2017-11-19T11:33:00.889Z,38.93
2017-11-19T11:38:27.776Z,38.88
2017-11-19T11:41:11.658Z,38.85
2017-11-19T11:43:50.018Z,38.90
2017-11-19T11:46:28.223Z,38.77
2017-11-19T11:49:08.239Z,38.73
2017-11-19T11:51:41.043Z,38.64
2017-11-19T11:54:14.239Z,38.72
2017-11-19T11:56:47.116Z,38.77
2017-11-19T11:59:22.271Z,38.87
2017-11-19T12:01:53.689Z,38.71
2017-11-19T12:04:25.680Z,38.62
2017-11-19T12:07:01.259Z,38.51
2017-11-19T12:09:33.559Z,38.47
2017-11-19T12:12:06.175Z,38.74
2017-11-19T12:14:38.278Z,38.82
2017-11-19T12:17:10.503Z,38.95
2017-11-19T12:19:42.909Z,39.03
2017-11-19T12:22:15.941Z,38.95
2017-11-19T12:24:55.291Z,39.04
2017-11-19T12:27:33.339Z,39.04
2017-11-19T12:30:05.533Z,39.14
2017-11-19T12:32:38.211Z,39.21
2017-11-19T12:35:14.997Z,39.16
2017-11-19T12:37:50.344Z,39.21
2017-11-19T12:40:25.313Z,39.25
2017-11-19T12:42:58.796Z,39.24
2017-11-19T12:45:31.857Z,39.27
2017-11-19T12:49:12.152Z,39.30
2017-11-19T12:51:52.409Z,39.30
2017-11-19T12:54:26.140Z,39.34
2017-11-19T12:56:58.144Z,39.34
2017-11-19T12:59:33.888Z,39.35
2017-11-19T13:02:15.005Z,39.34
2017-11-19T13:04:51.162Z,39.31
2017-11-19T13:07:38.899Z,39.18
2017-11-19T13:10:13.867Z,39.29
2017-11-19T13:12:49.942Z,39.37
2017-11-19T13:15:25.526Z,39.33
2017-11-19T13:18:00.686Z,39.24
2017-11-19T13:20:35.077Z,39.14
2017-11-19T13:23:11.563Z,39.08
2017-11-19T13:25:46.018Z,39.03
2017-11-19T13:28:19.232Z,38.91
2017-11-19T13:30:52.006Z,38.78
2017-11-19T13:33:23.652Z,38.72
2017-11-19T13:35:58.378Z,38.73
2017-11-19T13:38:29.758Z,38.74
2017-11-19T13:41:01.349Z,38.81
2017-11-19T13:43:32.745Z,38.81
2017-11-19T13:46:08.830Z,38.89
2017-11-19T13:48:45.637Z,38.92
2017-11-19T13:51:17.255Z,39.03
2017-11-19T13:53:48.354Z,39.10
2017-11-19T13:56:19.925Z,39.15
2017-11-19T13:58:57.812Z,39.14
2017-11-19T14:01:30.719Z,39.25
2017-11-19T14:04:06.963Z,39.28
2017-11-19T14:06:40.755Z,39.25
2017-11-19T14:09:16.778Z,39.19
2017-11-19T14:11:55.701Z,39.29
2017-11-19T14:14:28.440Z,39.31
2017-11-19T14:17:04.115Z,39.31
2017-11-19T14:19:43.404Z,39.40
2017-11-19T14:22:20.374Z,39.53
2017-11-19T14:24:55.482Z,39.59
2017-11-19T14:27:33.306Z,39.58
2017-11-19T14:30:06.351Z,39.63
2017-11-19T14:32:40.543Z,39.67
2017-11-19T14:37:54.380Z,39.67
2017-11-19T14:40:29.967Z,39.64
2017-11-19T14:43:04.012Z,39.74
2017-11-19T14:45:38.193Z,39.74
2017-11-19T14:48:25.907Z,39.75
2017-11-19T14:51:01.907Z,39.81
2017-11-19T14:53:35.424Z,39.75
2017-11-19T14:56:07.011Z,39.85
2017-11-19T14:58:38.719Z,39.85
2017-11-19T15:01:19.638Z,39.92
2017-11-19T15:03:52.242Z,39.91
2017-11-19T15:06:27.671Z,39.80
2017-11-19T15:09:00.058Z,39.83
2017-11-19T15:11:32.205Z,39.81
2017-11-19T15:14:04.632Z,39.82
2017-11-19T15:16:38.800Z,39.86
2017-11-19T15:19:15.290Z,39.75
2017-11-19T15:21:46.876Z,39.70
2017-11-19T15:24:19.177Z,39.66
2017-11-19T15:26:51.725Z,39.66
2017-11-19T15:35:34.553Z,39.73
2017-11-19T15:38:08.816Z,40.05
2017-11-19T15:40:41.412Z,40.01
2017-11-19T15:43:16.932Z,40.06
2017-11-19T15:45:50.744Z,40.14
2017-11-19T15:48:24.821Z,40.20
2017-11-19T15:50:58.597Z,40.29
2017-11-19T15:53:38.280Z,40.30
2017-11-19T15:56:22.846Z,40.34
2017-11-19T15:59:05.431Z,40.43
2017-11-19T16:01:45.299Z,40.51
2017-11-19T16:04:19.358Z,40.58
2017-11-19T16:06:51.633Z,40.56
2017-11-19T16:09:23.852Z,40.53
2017-11-19T16:11:57.857Z,40.57
2017-11-19T16:14:29.282Z,40.50
2017-11-19T16:17:09.657Z,40.54
2017-11-19T16:19:44.510Z,40.45
2017-11-19T16:22:18.920Z,40.56
2017-11-19T16:24:51.154Z,40.63
2017-11-19T16:27:25.085Z,40.70
2017-11-19T16:30:00.060Z,40.79
2017-11-19T16:32:33.833Z,40.74
2017-11-19T16:35:05.860Z,40.77
2017-11-19T16:37:38.969Z,40.72
2017-11-19T16:40:20.144Z,40.91
2017-11-19T16:42:51.985Z,40.92
2017-11-19T16:45:24.133Z,40.88
2017-11-19T16:47:55.604Z,40.82
2017-11-19T16:50:36.232Z,40.81
2017-11-19T16:53:20.714Z,40.80
2017-11-19T16:55:56.401Z,40.79
2017-11-19T17:01:22.916Z,40.71
2017-11-19T17:04:13.754Z,40.74
2017-11-19T17:06:47.945Z,40.76
2017-11-19T17:09:20.207Z,40.79
2017-11-19T17:11:52.241Z,40.80
2017-11-19T17:14:31.836Z,40.86
2017-11-19T17:17:04.453Z,40.91
2017-11-19T17:19:37.028Z,40.90
2017-11-19T17:22:09.661Z,40.85
2017-11-19T17:24:46.614Z,40.94
2017-11-19T17:27:20.248Z,40.94
2017-11-19T17:29:54.217Z,40.90
2017-11-19T17:32:26.490Z,40.84
2017-11-19T17:35:03.279Z,40.89
2017-11-19T17:37:40.748Z,40.89
2017-11-19T17:40:12.268Z,40.86
2017-11-19T17:42:46.237Z,40.93
2017-11-19T17:45:19.482Z,41.04
2017-11-19T17:48:02.128Z,41.12
2017-11-19T17:50:38.893Z,41.20
2017-11-19T17:53:26.987Z,41.19
2017-11-19T17:56:07.675Z,41.26
2017-11-19T17:58:45.482Z,41.29
2017-11-19T18:01:34.849Z,41.23
2017-11-19T18:04:16.144Z,41.29
2017-11-19T18:06:51.430Z,41.31
2017-11-19T18:09:24.409Z,41.34
2017-11-19T18:11:56.146Z,41.26
2017-11-19T18:14:31.406Z,41.34
2017-11-19T18:17:04.462Z,41.38
2017-11-19T18:19:36.727Z,41.32
2017-11-19T18:22:08.863Z,41.38
2017-11-19T18:24:41.870Z,41.29
2017-11-19T18:27:14.451Z,41.32
2017-11-19T18:29:51.836Z,41.20
2017-11-19T18:32:23.261Z,41.09
2017-11-19T18:34:54.861Z,41.12
2017-11-19T18:37:26.949Z,41.05
2017-11-19T18:39:58.336Z,41.07
2017-11-19T18:42:31.633Z,40.94
2017-11-19T18:45:03.456Z,40.94
2017-11-19T18:47:39.850Z,40.84
2017-11-19T18:50:11.513Z,40.78
2017-11-19T18:52:43.423Z,40.81
2017-11-19T18:55:19.668Z,40.74
2017-11-19T18:57:51.072Z,40.83
2017-11-19T19:00:34.831Z,40.92
2017-11-19T19:03:14.552Z,40.89
2017-11-19T19:05:47.394Z,41.00
2017-11-19T19:08:20.804Z,40.98
2017-11-19T19:10:53.578Z,41.05
2017-11-19T19:16:23.041Z,41.07
2017-11-19T19:18:54.741Z,41.11
2017-11-19T19:21:46.301Z,41.14
2017-11-19T19:24:36.074Z,41.13
2017-11-19T19:27:16.514Z,40.98
2017-11-19T19:29:51.035Z,41.14
2017-11-19T19:32:32.903Z,41.19
2017-11-19T19:35:18.282Z,41.15
2017-11-19T19:37:51.000Z,41.23
2017-11-19T19:40:25.848Z,41.22
2017-11-19T19:43:05.223Z,41.16
2017-11-19T19:45:38.568Z,41.22
2017-11-19T19:48:12.843Z,41.26
2017-11-19T19:50:46.228Z,41.28
2017-11-19T19:53:19.739Z,41.19
2017-11-19T19:55:51.338Z,41.12
2017-11-19T19:58:23.310Z,41.23
2017-11-19T20:00:54.885Z,41.29
2017-11-19T20:03:34.419Z,41.25
2017-11-19T20:06:11.267Z,41.25
2017-11-19T20:18:33.992Z,41.02
2017-11-19T20:21:08.802Z,40.97
2017-11-19T20:23:41.819Z,40.87
2017-11-19T20:29:27.600Z,40.70
2017-11-19T20:32:00.082Z,40.71
2017-11-19T20:35:01.630Z,40.65
2017-11-19T20:38:10.696Z,40.61
2017-11-19T20:40:46.882Z,40.73
2017-11-19T20:43:24.482Z,40.79
2017-11-19T20:46:00.089Z,40.72
2017-11-19T20:48:38.700Z,40.78
2017-11-19T20:51:10.723Z,40.80
2017-11-19T20:53:43.125Z,40.87
2017-11-19T20:56:29.081Z,40.91
2017-11-19T20:59:06.481Z,40.89
2017-11-19T21:01:38.229Z,40.96
2017-11-19T21:04:14.662Z,40.91
2017-11-19T21:06:47.878Z,40.92
2017-11-19T21:09:21.769Z,40.88
2017-11-19T21:11:56.953Z,40.85
2017-11-19T21:14:29.183Z,40.77
2017-11-19T21:17:07.556Z,40.81
2017-11-19T21:19:42.968Z,40.84
2017-11-19T21:22:15.849Z,40.84
2017-11-19T21:24:48.071Z,40.83
2017-11-19T21:27:22.834Z,40.76
2017-11-19T21:29:58.157Z,40.72
2017-11-19T21:32:29.960Z,40.83
2017-11-19T21:35:01.375Z,40.89
2017-11-19T21:37:34.008Z,40.84
2017-11-19T21:40:05.941Z,40.82
2017-11-19T21:42:37.532Z,40.75
2017-11-19T21:45:12.544Z,40.65
2017-11-19T21:47:44.195Z,40.83
2017-11-19T21:50:18.842Z,40.71
2017-11-19T21:52:50.390Z,40.71
2017-11-19T21:55:21.612Z,40.77
2017-11-19T21:57:52.884Z,40.70
2017-11-19T22:00:32.100Z,40.52
2017-11-19T22:09:09.321Z,40.55
2017-11-19T22:11:40.616Z,40.41
2017-11-19T22:14:16.768Z,40.56
2017-11-19T22:16:48.647Z,40.45
2017-11-19T22:19:20.343Z,40.47
2017-11-19T22:21:52.625Z,40.53
2017-11-19T22:24:23.980Z,40.50
2017-11-19T22:26:55.122Z,40.50
2017-11-19T22:29:27.250Z,40.47
2017-11-19T22:31:58.289Z,40.47
2017-11-19T22:34:31.307Z,40.58
2017-11-19T22:37:03.882Z,40.53
2017-11-19T22:39:37.033Z,40.57
2017-11-19T22:42:08.394Z,40.60
2017-11-19T22:44:40.749Z,40.64
2017-11-19T22:47:14.666Z,40.63
2017-11-19T22:49:46.124Z,40.43
2017-11-19T22:52:19.480Z,40.42
2017-11-19T22:54:51.628Z,40.41
2017-11-19T22:57:23.870Z,40.50
2017-11-19T22:59:56.018Z,40.53
2017-11-19T23:02:27.818Z,40.51
2017-11-19T23:05:02.664Z,40.56
2017-11-19T23:07:42.556Z,40.54
2017-11-19T23:10:17.489Z,40.52
2017-11-19T23:12:52.515Z,40.57
2017-11-19T23:15:24.522Z,40.67
2017-11-19T23:17:57.355Z,40.58
2017-11-19T23:20:28.850Z,40.60
2017-11-19T23:23:00.237Z,40.60
2017-11-19T23:25:32.129Z,40.64
2017-11-19T23:28:03.294Z,40.59
2017-11-19T23:30:36.048Z,40.54
2017-11-19T23:33:07.931Z,40.56
2017-11-19T23:35:38.934Z,40.47
2017-11-19T23:38:13.399Z,40.34
2017-11-19T23:40:45.315Z,40.42
2017-11-19T23:43:19.226Z,40.30
2017-11-19T23:45:51.258Z,40.30
2017-11-19T23:48:22.741Z,40.35
2017-11-19T23:50:54.048Z,40.28
2017-11-19T23:53:25.796Z,40.35
2017-11-19T23:55:57.205Z,40.33
2017-11-19T23:58:29.124Z,40.40
